Time;durP1;ratioP1;P1;durP2;ratioP2;P2;SDS_P1;SDS_P2;PMS_P1;PMS_P2;Temp;Humidity;BMP_temperature;BMP_pressure;BME280_temperature;BME280_humidity;BME280_pressure;Samples;Min_cycle;Max_cycle;Signal;HPM_P1;HPM_P2
2024/03/26 00:02:17;;;;;;;1.07;1.00;;;5.90;89.90;;;;;;5074511;28;20186;-63
2024/03/26 00:04:42;;;;;;;0.68;0.68;;;5.90;90.00;;;;;;5074629;28;20178;-63
2024/03/26 00:07:08;;;;;;;0.87;0.80;;;5.90;90.50;;;;;;5073634;28;20808;-63
2024/03/26 00:09:34;;;;;;;1.33;0.73;;;6.00;94.70;;;;;;5073992;28;20166;-63
2024/03/26 00:12:00;;;;;;;1.10;1.00;;;5.90;90.10;;;;;;5074674;28;20655;-63
2024/03/26 00:14:25;;;;;;;3.83;0.87;;;6.00;90.00;;;;;;5074328;28;20212;-63
2024/03/26 00:16:51;;;;;;;0.57;0.57;;;6.10;89.60;;;;;;5074566;28;20190;-63
2024/03/26 00:19:16;;;;;;;4.10;1.07;;;6.20;90.00;;;;;;5074391;28;20189;-64
2024/03/26 00:21:42;;;;;;;0.90;0.67;;;6.30;90.10;;;;;;5073039;28;20193;-63
2024/03/26 00:24:08;;;;;;;0.90;0.90;;;6.30;90.50;;;;;;5074302;28;20165;-64
2024/03/26 00:26:35;;;;;;;0.70;0.70;;;6.30;90.40;;;;;;5075334;28;20173;-64
2024/03/26 00:29:01;;;;;;;0.82;0.82;;;6.30;90.30;;;;;;5093033;28;20204;-63
2024/03/26 00:31:31;;;;;;;0.60;0.60;;;6.30;90.40;;;;;;5093874;28;20331;-63
2024/03/26 00:33:58;;;;;;;0.60;0.60;;;6.30;90.30;;;;;;5093984;28;20415;-64
2024/03/26 00:36:23;;;;;;;1.63;0.95;;;6.20;90.10;;;;;;5093916;28;20254;-64
2024/03/26 00:38:49;;;;;;;1.17;0.60;;;6.20;90.10;;;;;;5093560;28;20641;-63
2024/03/26 00:41:15;;;;;;;0.60;0.60;;;6.20;90.30;;;;;;5094808;28;20196;-64
2024/03/26 00:43:40;;;;;;;1.83;0.93;;;6.30;90.30;;;;;;5096566;28;20197;-64
2024/03/26 00:46:06;;;;;;;0.50;0.50;;;6.30;90.10;;;;;;5097894;28;20166;-63
2024/03/26 00:48:31;;;;;;;0.70;0.70;;;6.20;90.00;;;;;;5098710;28;20225;-63
2024/03/26 00:50:57;;;;;;;0.80;0.80;;;6.30;90.00;;;;;;5097112;28;20195;-64
2024/03/26 00:53:23;;;;;;;0.50;0.50;;;6.30;89.80;;;;;;5097521;28;20165;-64
2024/03/26 00:55:48;;;;;;;0.57;0.57;;;6.20;89.50;;;;;;5097168;28;20537;-63
2024/03/26 00:58:14;;;;;;;0.70;0.70;;;6.30;89.80;;;;;;5096632;28;20297;-64
2024/03/26 01:00:40;;;;;;;0.53;0.50;;;6.40;90.50;;;;;;5096625;28;20200;-63
2024/03/26 01:03:06;;;;;;;1.50;0.68;;;6.40;90.10;;;;;;5096507;28;20244;-64
2024/03/26 01:05:31;;;;;;;0.60;0.60;;;6.40;90.00;;;;;;5096979;28;20200;-64
2024/03/26 01:07:57;;;;;;;0.63;0.63;;;6.20;90.00;;;;;;5097135;28;20292;-64
2024/03/26 01:10:23;;;;;;;0.70;0.60;;;6.20;90.10;;;;;;5097447;28;20185;-64
2024/03/26 01:12:48;;;;;;;0.80;0.80;;;6.20;90.20;;;;;;5097281;28;20726;-64
2024/03/26 01:15:14;;;;;;;3.93;0.80;;;6.20;90.00;;;;;;5096959;28;20165;-64
2024/03/26 01:17:40;;;;;;;0.70;0.52;;;6.20;90.10;;;;;;5096949;28;20165;-64
2024/03/26 01:20:06;;;;;;;0.57;0.57;;;6.30;90.50;;;;;;5096601;28;20189;-65
2024/03/26 01:22:32;;;;;;;1.77;0.68;;;6.40;90.70;;;;;;5096732;28;20803;-63
2024/03/26 01:24:58;;;;;;;0.73;0.60;;;6.40;99.10;;;;;;5096656;28;20185;-64
2024/03/26 01:27:23;;;;;;;0.63;0.63;;;6.40;90.30;;;;;;5096695;28;20197;-64
2024/03/26 01:29:49;;;;;;;1.00;0.70;;;6.30;90.10;;;;;;5096656;28;20208;-64
2024/03/26 01:32:15;;;;;;;0.60;0.60;;;6.20;90.20;;;;;;5096710;28;20176;-64
2024/03/26 01:34:40;;;;;;;0.67;0.67;;;6.10;90.40;;;;;;5097077;28;20170;-64
2024/03/26 01:37:06;;;;;;;1.03;1.03;;;6.20;90.80;;;;;;5096643;28;20200;-64
2024/03/26 01:39:31;;;;;;;1.13;0.63;;;6.50;94.60;;;;;;5096180;28;20223;-64
2024/03/26 01:41:57;;;;;;;1.03;0.77;;;6.30;90.30;;;;;;5096312;28;20210;-64
2024/03/26 01:44:23;;;;;;;5.80;0.70;;;6.30;89.80;;;;;;5096431;28;20171;-64
2024/03/26 01:46:49;;;;;;;0.68;0.68;;;6.30;90.20;;;;;;5095923;28;20646;-64
2024/03/26 01:49:16;;;;;;;2.63;0.80;;;6.20;90.30;;;;;;5096103;28;20197;-64
2024/03/26 01:51:44;;;;;;;0.45;0.45;;;6.40;90.50;;;;;;5096481;28;20178;-64
2024/03/26 01:54:11;;;;;;;0.50;0.50;;;6.40;90.00;;;;;;5095861;28;20169;-64
2024/03/26 01:56:39;;;;;;;0.65;0.60;;;6.50;90.40;;;;;;5095799;28;20174;-64
2024/03/26 01:59:05;;;;;;;0.95;0.70;;;6.50;90.50;;;;;;5095331;28;20178;-64
2024/03/26 02:01:32;;;;;;;0.60;0.60;;;6.50;90.00;;;;;;5095808;28;20209;-64
2024/03/26 02:03:58;;;;;;;0.40;0.40;;;6.50;89.50;;;;;;5096210;28;20185;-65
2024/03/26 02:06:24;;;;;;;0.98;0.60;;;6.50;90.10;;;;;;5096041;28;20651;-64
2024/03/26 02:08:51;;;;;;;0.50;0.40;;;6.60;90.20;;;;;;5095630;28;20285;-64
2024/03/26 02:11:16;;;;;;;1.20;0.60;;;6.70;89.60;;;;;;5096313;28;20687;-65
2024/03/26 02:13:45;;;;;;;0.70;0.70;;;6.80;89.40;;;;;;5095994;28;20175;-64
2024/03/26 02:16:11;;;;;;;0.60;0.50;;;6.80;89.00;;;;;;5095823;28;20259;-64
2024/03/26 02:18:37;;;;;;;0.83;0.83;;;6.70;88.90;;;;;;5095428;28;20213;-64
2024/03/26 02:21:03;;;;;;;0.80;0.60;;;6.70;89.90;;;;;;5095904;28;20252;-64
2024/03/26 02:23:28;;;;;;;0.40;0.40;;;6.80;89.40;;;;;;5095747;28;20234;-64
2024/03/26 02:25:54;;;;;;;0.83;0.50;;;6.90;88.10;;;;;;5095535;28;20437;-64
2024/03/26 02:28:20;;;;;;;0.40;0.40;;;6.90;86.90;;;;;;5095486;28;20190;-64
2024/03/26 02:30:45;;;;;;;0.70;0.70;;;7.00;88.20;;;;;;5095714;28;20621;-64
2024/03/26 02:33:11;;;;;;;0.93;0.87;;;7.00;87.50;;;;;;5095577;28;20250;-64
2024/03/26 02:35:36;;;;;;;0.40;0.40;;;7.00;88.20;;;;;;5095320;28;20179;-64
2024/03/26 02:38:02;;;;;;;0.53;0.53;;;7.10;88.10;;;;;;5095581;28;20733;-64
2024/03/26 02:40:28;;;;;;;0.80;0.80;;;7.00;88.70;;;;;;5095511;28;20194;-63
2024/03/26 02:42:54;;;;;;;0.70;0.70;;;6.90;88.80;;;;;;5095497;28;20404;-64
2024/03/26 02:45:20;;;;;;;0.93;0.75;;;6.90;89.30;;;;;;5095108;28;20548;-64
2024/03/26 02:47:45;;;;;;;0.77;0.53;;;6.90;90.10;;;;;;5095100;28;20198;-64
2024/03/26 02:50:11;;;;;;;0.70;0.70;;;6.80;90.40;;;;;;5094553;28;20190;-65
2024/03/26 02:52:36;;;;;;;2.33;0.73;;;6.70;89.80;;;;;;5094926;28;20201;-64
2024/03/26 02:55:02;;;;;;;0.60;0.60;;;6.70;89.60;;;;;;5094906;28;20241;-64
2024/03/26 02:57:28;;;;;;;1.25;1.02;;;6.70;89.50;;;;;;5094550;28;20205;-64
2024/03/26 02:59:54;;;;;;;2.50;0.70;;;6.80;90.00;;;;;;5094264;28;20203;-65
2024/03/26 03:02:20;;;;;;;1.47;1.17;;;6.80;89.80;;;;;;5094928;28;20222;-65
2024/03/26 03:04:45;;;;;;;1.05;0.70;;;6.80;90.10;;;;;;5095016;28;20552;-64
2024/03/26 03:07:11;;;;;;;1.10;1.00;;;6.80;90.10;;;;;;5094400;28;20196;-65
2024/03/26 03:09:37;;;;;;;1.17;0.60;;;6.90;96.60;;;;;;5094172;28;20166;-65
2024/03/26 03:12:03;;;;;;;0.82;0.82;;;6.90;90.00;;;;;;5093524;28;20250;-64
2024/03/26 03:14:29;;;;;;;0.60;0.60;;;6.80;90.20;;;;;;5094423;28;20309;-64
2024/03/26 03:16:54;;;;;;;0.50;0.50;;;6.80;90.40;;;;;;5094284;28;20622;-65
2024/03/26 03:19:20;;;;;;;2.23;0.63;;;6.80;90.60;;;;;;5093837;28;20228;-64
2024/03/26 03:21:45;;;;;;;0.87;0.60;;;6.70;90.70;;;;;;5094412;28;20277;-64
2024/03/26 03:24:11;;;;;;;2.20;0.93;;;6.70;90.60;;;;;;5095634;28;20172;-64
2024/03/26 03:26:37;;;;;;;0.93;0.70;;;6.70;90.50;;;;;;5094516;28;20166;-64
2024/03/26 03:29:03;;;;;;;0.60;0.60;;;6.70;90.60;;;;;;5093891;28;20677;-64
2024/03/26 03:31:29;;;;;;;0.60;0.60;;;6.80;90.50;;;;;;5094678;28;20257;-64
2024/03/26 03:33:55;;;;;;;0.50;0.40;;;6.70;90.30;;;;;;5094430;28;20412;-65
2024/03/26 03:36:21;;;;;;;0.50;0.50;;;6.60;90.80;;;;;;5093271;28;20763;-64
2024/03/26 03:38:47;;;;;;;0.40;0.40;;;6.70;91.10;;;;;;5094443;28;20413;-65
2024/03/26 03:41:12;;;;;;;0.87;0.67;;;6.70;91.40;;;;;;5093885;28;20489;-64
2024/03/26 03:43:38;;;;;;;2.10;0.87;;;6.70;91.50;;;;;;5094283;28;20178;-64
2024/03/26 03:46:04;;;;;;;0.60;0.60;;;6.80;91.50;;;;;;5094554;28;20253;-64
2024/03/26 03:48:30;;;;;;;0.50;0.50;;;6.80;90.60;;;;;;5094217;28;20214;-65
2024/03/26 03:50:56;;;;;;;0.65;0.65;;;6.80;90.30;;;;;;5094005;28;20196;-64
2024/03/26 03:53:21;;;;;;;1.40;0.80;;;6.60;90.40;;;;;;5093857;28;20180;-64
2024/03/26 03:55:47;;;;;;;0.80;0.70;;;6.60;89.80;;;;;;5094114;28;20161;-63
2024/03/26 03:58:12;;;;;;;0.60;0.50;;;6.70;88.80;;;;;;5094077;28;20172;-64
2024/03/26 04:00:38;;;;;;;0.40;0.40;;;6.70;89.10;;;;;;5093551;28;20211;-64
2024/03/26 04:03:04;;;;;;;0.97;0.70;;;6.60;89.70;;;;;;5093814;28;20713;-64
2024/03/26 04:05:30;;;;;;;0.90;0.90;;;6.50;89.80;;;;;;5093816;28;20230;-64
2024/03/26 04:07:55;;;;;;;0.77;0.77;;;6.60;90.40;;;;;;5093782;28;20455;-64
2024/03/26 04:10:21;;;;;;;0.70;0.70;;;6.80;90.60;;;;;;5093332;28;20617;-64
2024/03/26 04:12:46;;;;;;;1.23;0.90;;;6.70;90.50;;;;;;5094035;28;20162;-64
2024/03/26 04:15:13;;;;;;;1.00;1.00;;;6.80;90.50;;;;;;5093695;28;20166;-64
2024/03/26 04:17:38;;;;;;;0.93;0.80;;;6.70;90.20;;;;;;5093322;28;20181;-64
2024/03/26 04:20:05;;;;;;;0.87;0.80;;;6.70;88.60;;;;;;5097755;28;20228;-65
2024/03/26 04:22:30;;;;;;;0.85;0.80;;;6.80;87.80;;;;;;5097998;28;20183;-64
2024/03/26 04:24:56;;;;;;;0.63;0.63;;;6.80;87.60;;;;;;5097929;28;20182;-64
2024/03/26 04:27:22;;;;;;;1.43;0.90;;;6.90;87.00;;;;;;5097495;28;20829;-64
2024/03/26 04:29:47;;;;;;;1.30;0.57;;;6.90;87.50;;;;;;5097480;28;20187;-64
2024/03/26 04:32:13;;;;;;;0.70;0.70;;;6.90;89.30;;;;;;5097570;28;20221;-64
2024/03/26 04:34:39;;;;;;;1.13;0.50;;;6.90;89.90;;;;;;5097566;28;20183;-64
2024/03/26 04:37:04;;;;;;;0.50;0.50;;;6.90;89.80;;;;;;5098126;28;20656;-64
2024/03/26 04:39:30;;;;;;;0.70;0.70;;;7.10;97.00;;;;;;5097506;28;20246;-64
2024/03/26 04:41:56;;;;;;;1.80;0.63;;;7.00;90.20;;;;;;5097709;28;20171;-65
2024/03/26 04:44:22;;;;;;;1.03;0.93;;;7.00;90.10;;;;;;5097692;28;20700;-64
2024/03/26 04:46:48;;;;;;;0.80;0.60;;;7.00;90.10;;;;;;5098093;28;20513;-64
2024/03/26 04:49:14;;;;;;;0.60;0.60;;;7.00;90.00;;;;;;5083661;28;20179;-64
2024/03/26 04:51:40;;;;;;;0.73;0.60;;;7.00;90.10;;;;;;5077870;28;20257;-64
2024/03/26 04:54:06;;;;;;;0.60;0.60;;;7.00;90.30;;;;;;5077787;28;20178;-64
2024/03/26 04:56:32;;;;;;;0.70;0.70;;;6.90;89.90;;;;;;5077993;28;20826;-64
2024/03/26 04:58:58;;;;;;;0.50;0.40;;;6.80;89.80;;;;;;5071326;28;20204;-64
2024/03/26 05:01:23;;;;;;;0.50;0.50;;;6.80;90.00;;;;;;5076407;28;20281;-64
2024/03/26 05:03:49;;;;;;;2.20;0.90;;;6.80;90.20;;;;;;5076985;28;20463;-65
2024/03/26 05:06:14;;;;;;;0.90;0.77;;;6.80;90.70;;;;;;5077005;28;20192;-64
2024/03/26 05:08:43;;;;;;;0.53;0.53;;;6.90;90.50;;;;;;5077029;28;20242;-65
2024/03/26 05:11:08;;;;;;;4.00;0.70;;;6.90;90.70;;;;;;5076702;28;20200;-65
2024/03/26 05:13:34;;;;;;;2.60;1.03;;;6.90;91.00;;;;;;5076103;28;20173;-65
2024/03/26 05:16:00;;;;;;;1.33;0.70;;;7.00;90.80;;;;;;5076749;28;20665;-64
2024/03/26 05:18:26;;;;;;;0.50;0.50;;;6.90;90.80;;;;;;5076241;28;20544;-64
2024/03/26 05:20:52;;;;;;;0.60;0.60;;;6.90;90.60;;;;;;5076354;28;20198;-64
2024/03/26 05:23:18;;;;;;;0.80;0.80;;;6.90;90.20;;;;;;5076561;28;20270;-64
2024/03/26 05:25:44;;;;;;;0.70;0.70;;;6.90;90.00;;;;;;5076919;28;20184;-64
2024/03/26 05:28:10;;;;;;;0.87;0.87;;;6.90;90.30;;;;;;5076320;28;20204;-64
2024/03/26 05:30:37;;;;;;;0.63;0.63;;;6.80;90.20;;;;;;5076107;28;20203;-64
2024/03/26 05:33:02;;;;;;;0.45;0.45;;;6.70;89.80;;;;;;5076410;28;20183;-64
2024/03/26 05:35:30;;;;;;;1.90;0.60;;;6.60;88.80;;;;;;5076708;28;20179;-64
2024/03/26 05:37:58;;;;;;;0.93;0.65;;;6.50;87.70;;;;;;5076626;28;20582;-64
2024/03/26 05:40:24;;;;;;;0.50;0.50;;;6.50;88.50;;;;;;5076321;28;20221;-64
2024/03/26 05:42:50;;;;;;;4.47;0.75;;;6.50;89.00;;;;;;5076480;28;20173;-64
2024/03/26 05:45:15;;;;;;;0.70;0.70;;;6.40;89.80;;;;;;5076044;28;20226;-64
2024/03/26 05:47:41;;;;;;;2.40;0.80;;;6.30;90.30;;;;;;5076310;28;20230;-64
2024/03/26 05:50:07;;;;;;;1.10;0.80;;;6.20;90.60;;;;;;5076236;28;20186;-64
2024/03/26 05:52:33;;;;;;;1.20;0.68;;;6.00;90.40;;;;;;5075919;28;20235;-65
2024/03/26 05:54:59;;;;;;;0.57;0.57;;;6.00;90.60;;;;;;5076299;28;20252;-64
2024/03/26 05:57:24;;;;;;;0.60;0.60;;;6.10;90.50;;;;;;5074616;28;20654;-64
2024/03/26 05:59:50;;;;;;;0.70;0.70;;;6.20;90.20;;;;;;5075441;28;20200;-64
2024/03/26 06:02:16;;;;;;;0.70;0.70;;;6.20;90.10;;;;;;5075485;28;20177;-64
2024/03/26 06:04:42;;;;;;;0.70;0.70;;;6.30;90.30;;;;;;5075715;28;20228;-64
2024/03/26 06:07:07;;;;;;;1.93;1.20;;;6.30;90.30;;;;;;5075729;28;20186;-64
2024/03/26 06:09:33;;;;;;;1.23;0.80;;;6.20;97.50;;;;;;5075606;28;20405;-64
2024/03/26 06:11:59;;;;;;;1.00;0.90;;;6.20;90.30;;;;;;5075432;28;20229;-64
2024/03/26 06:14:25;;;;;;;1.13;0.80;;;6.40;90.70;;;;;;5075897;28;20179;-64
2024/03/26 06:16:50;;;;;;;1.33;0.70;;;6.40;90.60;;;;;;5076096;28;20638;-64
2024/03/26 06:19:17;;;;;;;0.77;0.77;;;6.60;90.80;;;;;;5075260;28;20166;-64
2024/03/26 06:21:43;;;;;;;1.45;0.65;;;6.70;90.50;;;;;;5075408;28;20187;-64
2024/03/26 06:24:09;;;;;;;0.50;0.50;;;6.80;90.40;;;;;;5074670;28;20300;-65
2024/03/26 06:26:34;;;;;;;1.00;1.00;;;6.90;89.70;;;;;;5072803;28;20643;-65
2024/03/26 06:29:00;;;;;;;1.77;1.50;;;7.00;90.20;;;;;;5071806;28;20208;-65
2024/03/26 06:31:26;;;;;;;3.23;1.70;;;7.00;90.20;;;;;;5072990;28;20192;-65
2024/03/26 06:33:52;;;;;;;5.73;1.70;;;6.90;90.10;;;;;;5072908;28;20168;-65
2024/03/26 06:36:17;;;;;;;1.75;1.65;;;6.90;90.60;;;;;;5072826;28;20182;-65
2024/03/26 06:38:43;;;;;;;2.83;1.80;;;7.10;91.00;;;;;;5072822;28;20176;-65
2024/03/26 06:41:09;;;;;;;3.00;1.63;;;7.40;91.00;;;;;;5072260;28;20201;-65
2024/03/26 06:43:34;;;;;;;1.17;1.07;;;8.00;90.50;;;;;;5072879;28;20227;-65
2024/03/26 06:46:00;;;;;;;2.13;1.30;;;8.60;89.30;;;;;;5072524;28;20403;-65
2024/03/26 06:48:25;;;;;;;0.50;0.50;;;9.20;86.40;;;;;;5072419;28;20201;-65
2024/03/26 06:50:51;;;;;;;1.00;0.90;;;9.60;83.40;;;;;;5072489;28;20190;-65
2024/03/26 06:53:18;;;;;;;0.80;0.80;;;10.20;79.30;;;;;;5072727;28;20313;-65
2024/03/26 06:55:44;;;;;;;1.40;0.97;;;10.80;78.20;;;;;;5071917;28;20189;-65
2024/03/26 06:58:10;;;;;;;3.97;2.20;;;11.20;76.20;;;;;;5072263;28;20399;-65
2024/03/26 07:00:36;;;;;;;1.20;1.10;;;11.50;74.80;;;;;;5072424;28;20219;-65
2024/03/26 07:03:01;;;;;;;2.40;0.90;;;11.90;73.90;;;;;;5072513;28;20408;-65
2024/03/26 07:05:27;;;;;;;3.70;2.10;;;12.30;70.50;;;;;;5072262;28;20216;-65
2024/03/26 07:07:52;;;;;;;3.67;2.90;;;12.70;69.40;;;;;;5072289;28;20190;-65
2024/03/26 07:10:18;;;;;;;5.60;3.93;;;13.10;68.80;;;;;;5071987;28;20230;-65
2024/03/26 07:12:44;;;;;;;3.27;2.97;;;13.40;68.00;;;;;;5071819;28;20176;-65
2024/03/26 07:15:10;;;;;;;5.70;2.93;;;13.90;67.00;;;;;;5072297;28;20169;-65
2024/03/26 07:17:38;;;;;;;8.13;2.10;;;14.10;63.40;;;;;;5071923;28;20201;-65
2024/03/26 07:20:05;;;;;;;2.23;1.53;;;14.60;63.60;;;;;;5072105;28;20427;-65
2024/03/26 07:22:30;;;;;;;3.07;1.80;;;15.20;60.00;;;;;;5072195;28;20404;-65
2024/03/26 07:24:56;;;;;;;3.40;1.93;;;15.60;59.50;;;;;;5072134;28;20759;-65
2024/03/26 07:27:22;;;;;;;1.03;0.93;;;16.00;59.20;;;;;;5071892;28;20231;-65
2024/03/26 07:29:48;;;;;;;1.50;1.27;;;16.40;55.70;;;;;;5072746;28;20439;-63
2024/03/26 07:32:14;;;;;;;2.13;1.13;;;16.50;55.10;;;;;;5070811;28;20216;-63
2024/03/26 07:34:40;;;;;;;3.80;1.13;;;16.50;53.40;;;;;;5072033;28;20468;-63
2024/03/26 07:37:05;;;;;;;1.73;0.97;;;16.70;52.00;;;;;;5072089;28;20260;-63
2024/03/26 07:39:31;;;;;;;1.10;1.00;;;17.10;51.40;;;;;;5071636;28;20165;-63
2024/03/26 07:41:57;;;;;;;1.40;1.30;;;17.50;50.70;;;;;;5071965;28;20252;-63
2024/03/26 07:44:23;;;;;;;3.77;2.10;;;18.20;50.80;;;;;;5071937;28;20223;-63
2024/03/26 07:46:48;;;;;;;1.73;1.23;;;19.00;48.70;;;;;;5071893;28;20455;-64
2024/03/26 07:49:14;;;;;;;2.97;1.90;;;19.80;48.30;;;;;;5071554;28;20236;-64
2024/03/26 07:51:39;;;;;;;1.50;1.30;;;20.80;47.20;;;;;;5071789;28;20201;-65
2024/03/26 07:54:05;;;;;;;1.47;1.10;;;21.70;43.50;;;;;;5070622;28;20668;-65
2024/03/26 07:56:32;;;;;;;1.10;0.80;;;22.30;42.90;;;;;;5071743;28;20761;-65
2024/03/26 07:58:57;;;;;;;1.27;1.17;;;23.20;39.80;;;;;;5071584;28;20655;-65
2024/03/26 08:01:23;;;;;;;0.80;0.80;;;23.80;37.50;;;;;;5071634;28;20535;-65
2024/03/26 08:03:50;;;;;;;1.00;0.70;;;24.60;37.10;;;;;;5072198;28;20242;-65
2024/03/26 08:06:16;;;;;;;2.40;0.80;;;25.50;34.90;;;;;;5071965;28;20968;-65
2024/03/26 08:08:41;;;;;;;1.07;0.73;;;26.20;30.50;;;;;;5071451;28;20644;-65
2024/03/26 08:11:11;;;;;;;1.13;1.03;;;27.00;29.90;;;;;;5071446;28;20283;-65
2024/03/26 08:13:37;;;;;;;3.13;0.73;;;27.90;27.90;;;;;;5082327;28;20180;-65
2024/03/26 08:16:03;;;;;;;1.20;0.77;;;28.80;27.30;;;;;;5091802;28;20418;-65
2024/03/26 08:18:28;;;;;;;1.33;0.90;;;28.80;26.20;;;;;;5091689;28;20172;-65
2024/03/26 08:20:54;;;;;;;1.00;0.73;;;26.40;26.40;;;;;;5091520;28;20563;-65
2024/03/26 08:23:20;;;;;;;4.30;1.20;;;24.40;27.10;;;;;;5091669;28;20183;-65
2024/03/26 08:25:45;;;;;;;3.13;1.13;;;24.10;28.60;;;;;;5091686;28;20725;-65
2024/03/26 08:28:11;;;;;;;2.43;1.00;;;24.30;29.20;;;;;;5091428;28;20204;-65
2024/03/26 08:30:37;;;;;;;0.70;0.57;;;25.20;28.30;;;;;;5091463;28;20199;-65
2024/03/26 08:33:03;;;;;;;1.53;0.80;;;26.40;27.40;;;;;;5091756;28;20181;-65
2024/03/26 08:35:29;;;;;;;2.17;0.87;;;27.10;27.00;;;;;;5091610;28;20454;-65
2024/03/26 08:37:54;;;;;;;1.13;0.90;;;27.90;26.30;;;;;;5091509;28;20173;-65
2024/03/26 08:40:20;;;;;;;2.73;1.13;;;28.50;26.20;;;;;;5091264;28;20234;-65
2024/03/26 08:42:46;;;;;;;2.70;1.20;;;28.80;25.50;;;;;;5091762;28;20181;-65
2024/03/26 08:45:12;;;;;;;2.97;1.23;;;28.90;24.60;;;;;;5091599;28;20173;-65
2024/03/26 08:47:37;;;;;;;0.83;0.67;;;28.10;25.30;;;;;;5091426;28;20455;-65
2024/03/26 08:50:03;;;;;;;1.20;0.70;;;27.80;24.80;;;;;;5091220;28;20188;-65
2024/03/26 08:52:29;;;;;;;0.60;0.60;;;27.50;25.60;;;;;;5091432;28;20177;-65
2024/03/26 08:54:55;;;;;;;2.50;1.23;;;27.30;25.70;;;;;;5091474;28;20399;-65
2024/03/26 08:57:20;;;;;;;1.00;0.50;;;27.00;25.90;;;;;;5091418;28;20634;-65
2024/03/26 08:59:47;;;;;;;3.37;0.90;;;26.20;34.80;;;;;;5090992;28;20643;-64
2024/03/26 09:02:13;;;;;;;1.00;0.80;;;26.30;25.70;;;;;;5091591;28;20195;-65
2024/03/26 09:04:39;;;;;;;1.13;0.60;;;26.20;25.60;;;;;;5093000;28;20782;-65
2024/03/26 09:07:04;;;;;;;1.93;0.90;;;26.40;26.10;;;;;;5094895;28;20173;-65
2024/03/26 09:09:30;;;;;;;2.30;1.10;;;27.70;28.30;;;;;;5094727;28;20172;-65
2024/03/26 09:11:55;;;;;;;3.43;1.20;;;27.90;25.50;;;;;;5095032;28;20176;-65
2024/03/26 09:14:21;;;;;;;2.87;1.37;;;27.70;24.20;;;;;;5095048;28;20191;-65
2024/03/26 09:16:47;;;;;;;0.80;0.63;;;27.30;24.40;;;;;;5094866;28;20169;-65
2024/03/26 09:19:12;;;;;;;1.13;0.83;;;27.10;25.10;;;;;;5094599;28;20180;-64
2024/03/26 09:21:38;;;;;;;6.20;0.97;;;26.10;25.30;;;;;;5094627;28;20220;-65
2024/03/26 09:24:04;;;;;;;7.10;1.20;;;24.30;25.40;;;;;;5094757;28;20173;-65
2024/03/26 09:26:29;;;;;;;2.70;1.03;;;23.50;26.50;;;;;;5094830;28;20203;-64
2024/03/26 09:28:56;;;;;;;3.70;1.30;;;22.60;26.60;;;;;;5094383;28;20208;-64
2024/03/26 09:31:21;;;;;;;4.30;0.90;;;21.90;27.80;;;;;;5094662;28;20199;-65
2024/03/26 09:33:47;;;;;;;3.17;0.80;;;21.20;28.20;;;;;;5094595;28;20407;-64
2024/03/26 09:36:13;;;;;;;1.20;0.73;;;19.30;29.00;;;;;;5094433;28;20161;-64
2024/03/26 09:38:38;;;;;;;2.77;1.53;;;18.30;29.00;;;;;;5094333;28;20180;-64
2024/03/26 09:41:04;;;;;;;0.80;0.80;;;18.10;29.70;;;;;;5094268;28;20195;-64
2024/03/26 09:43:31;;;;;;;1.43;1.20;;;18.30;30.00;;;;;;5094650;28;20183;-65
2024/03/26 09:45:57;;;;;;;1.50;1.00;;;18.00;30.00;;;;;;5092963;28;20415;-65
2024/03/26 09:48:26;;;;;;;2.03;0.93;;;18.10;31.00;;;;;;5093709;28;20430;-64
2024/03/26 09:50:52;;;;;;;1.33;0.80;;;18.50;32.40;;;;;;5093715;28;20850;-64
2024/03/26 09:53:19;;;;;;;2.40;1.10;;;19.70;31.20;;;;;;5095082;28;20415;-63
2024/03/26 09:55:45;;;;;;;4.97;0.90;;;20.90;29.90;;;;;;5093960;28;20392;-64
2024/03/26 09:58:11;;;;;;;4.13;0.70;;;22.10;29.10;;;;;;5093956;28;20418;-64
2024/03/26 10:00:40;;;;;;;1.33;1.03;;;22.30;27.50;;;;;;5093755;28;20930;-62
2024/03/26 10:03:07;;;;;;;1.03;0.83;;;22.00;28.40;;;;;;5094724;28;20248;-63
2024/03/26 10:05:33;;;;;;;1.40;0.80;;;21.00;28.50;;;;;;5094032;28;20923;-63
2024/03/26 10:07:58;;;;;;;1.90;0.87;;;20.20;29.30;;;;;;5093664;28;20466;-64
2024/03/26 10:10:24;;;;;;;1.67;1.13;;;19.90;29.50;;;;;;5093552;28;20481;-64
2024/03/26 10:12:50;;;;;;;1.40;1.30;;;19.60;29.50;;;;;;5094234;28;20688;-63
2024/03/26 10:15:15;;;;;;;5.40;1.50;;;19.10;30.10;;;;;;5093334;28;20261;-63
2024/03/26 10:17:41;;;;;;;1.43;1.10;;;18.80;29.20;;;;;;5093228;28;20186;-63
2024/03/26 10:20:10;;;;;;;1.33;1.07;;;18.60;29.70;;;;;;5093395;28;20197;-63
2024/03/26 10:22:36;;;;;;;1.93;0.90;;;18.90;30.00;;;;;;5093706;28;20173;-64
2024/03/26 10:25:02;;;;;;;2.73;1.20;;;18.60;29.70;;;;;;5093634;28;20402;-62
2024/03/26 10:27:27;;;;;;;4.40;1.37;;;18.50;30.10;;;;;;5093529;28;20196;-62
2024/03/26 10:29:55;;;;;;;3.87;1.13;;;18.00;31.40;;;;;;5093255;28;20815;-63
2024/03/26 10:32:24;;;;;;;5.10;0.90;;;17.80;31.70;;;;;;5093426;28;20201;-64
2024/03/26 10:35:03;;;;;;;1.53;1.03;;;18.20;31.90;;;;;;5093470;28;20412;-64
2024/03/26 10:37:30;;;;;;;2.27;1.53;;;18.70;30.20;;;;;;5093426;28;20418;-63
2024/03/26 10:40:07;;;;;;;4.73;0.80;;;18.90;30.30;;;;;;5093027;28;20466;-63
2024/03/26 10:42:43;;;;;;;3.10;1.40;;;18.50;31.00;;;;;;5093358;28;20497;-63
2024/03/26 10:45:09;;;;;;;3.03;1.50;;;18.40;31.70;;;;;;5093282;28;20409;-63
2024/03/26 10:47:37;;;;;;;1.03;0.83;;;18.40;32.80;;;;;;5093059;28;20465;-63
2024/03/26 10:50:02;;;;;;;0.87;0.70;;;18.40;31.80;;;;;;5092909;28;20206;-64
2024/03/26 10:52:29;;;;;;;4.10;1.10;;;18.00;31.90;;;;;;5088687;28;20430;-63
2024/03/26 10:54:58;;;;;;;1.43;1.03;;;18.00;32.20;;;;;;5093070;28;20624;-63
2024/03/26 10:57:24;;;;;;;2.67;1.30;;;17.60;32.40;;;;;;5101761;28;20484;-63
2024/03/26 10:59:50;;;;;;;1.50;1.00;;;17.40;32.40;;;;;;5096656;28;20460;-63
2024/03/26 11:02:17;;;;;;;3.40;3.10;;;17.60;33.70;;;;;;5113469;28;20528;-63
2024/03/26 11:04:44;;;;;;;2.10;1.07;;;17.80;32.70;;;;;;5103595;28;20207;-63
2024/03/26 11:07:10;;;;;;;2.40;1.17;;;17.70;33.30;;;;;;5092627;28;20889;-62
2024/03/26 11:09:37;;;;;;;2.40;1.57;;;16.00;40.50;;;;;;5091177;28;20414;-63
2024/03/26 11:12:02;;;;;;;3.23;1.20;;;15.80;33.50;;;;;;5093267;28;20438;-63
2024/03/26 11:14:28;;;;;;;1.53;1.33;;;15.40;34.70;;;;;;5112384;28;20453;-63
2024/03/26 11:16:58;;;;;;;7.10;1.27;;;14.80;36.30;;;;;;5112862;28;20171;-63
2024/03/26 11:19:28;;;;;;;1.40;1.00;;;14.60;37.00;;;;;;5112732;28;20186;-63
2024/03/26 11:21:55;;;;;;;2.20;1.53;;;14.30;37.40;;;;;;5112719;28;20402;-63
2024/03/26 11:24:29;;;;;;;0.83;0.73;;;14.40;37.60;;;;;;5112703;28;20413;-63
2024/03/26 11:26:58;;;;;;;3.00;1.07;;;14.60;37.00;;;;;;5112344;28;20412;-64
2024/03/26 11:29:24;;;;;;;1.30;0.90;;;14.50;37.20;;;;;;5110421;28;20468;-63
2024/03/26 11:31:51;;;;;;;1.97;1.20;;;14.50;37.80;;;;;;5092151;28;20472;-64
2024/03/26 11:34:20;;;;;;;5.30;1.30;;;15.00;37.50;;;;;;5092249;28;20402;-63
2024/03/26 11:36:47;;;;;;;2.90;1.30;;;15.60;37.40;;;;;;5092078;28;20409;-63
2024/03/26 11:39:15;;;;;;;1.23;1.13;;;16.10;36.10;;;;;;5092001;28;20403;-63
2024/03/26 11:41:41;;;;;;;1.10;1.00;;;16.50;35.90;;;;;;5092136;28;20514;-63
2024/03/26 11:44:07;;;;;;;1.20;1.10;;;16.50;35.30;;;;;;5092105;28;20471;-63
2024/03/26 11:46:33;;;;;;;1.33;0.90;;;16.70;35.70;;;;;;5092118;28;20410;-63
2024/03/26 11:49:08;;;;;;;2.23;1.33;;;16.50;34.90;;;;;;5091735;28;20454;-63
2024/03/26 11:51:35;;;;;;;3.37;1.30;;;16.50;37.00;;;;;;5091843;28;20193;-63
2024/03/26 11:54:02;;;;;;;3.60;1.30;;;16.30;35.60;;;;;;5090743;28;20442;-63
2024/03/26 11:56:28;;;;;;;2.27;1.20;;;16.20;36.30;;;;;;5090447;28;20414;-63
2024/03/26 11:58:53;;;;;;;5.40;1.03;;;15.90;35.40;;;;;;5071470;28;20898;-63
2024/03/26 12:01:20;;;;;;;1.53;1.37;;;15.30;36.40;;;;;;5072178;28;20338;-63
2024/03/26 12:04:01;;;;;;;2.73;1.13;;;14.90;36.90;;;;;;5091929;28;20207;-63
2024/03/26 12:06:30;;;;;;;3.53;1.53;;;15.10;36.80;;;;;;5091656;28;20403;-63
2024/03/26 12:08:57;;;;;;;0.80;0.77;;;15.20;37.20;;;;;;5090084;28;20857;-63
2024/03/26 12:11:23;;;;;;;1.47;0.83;;;15.20;37.20;;;;;;5091749;28;20423;-63
2024/03/26 12:13:50;;;;;;;1.27;1.17;;;15.20;37.40;;;;;;5091667;28;20406;-63
2024/03/26 12:16:26;;;;;;;3.07;0.93;;;15.40;37.00;;;;;;5091733;28;20414;-63
2024/03/26 12:18:53;;;;;;;2.20;1.23;;;15.40;36.90;;;;;;5091353;28;20410;-62
2024/03/26 12:21:19;;;;;;;9.53;1.57;;;15.30;35.70;;;;;;5090689;28;20533;-63
2024/03/26 12:23:56;;;;;;;4.13;1.10;;;15.10;36.40;;;;;;5091728;28;20421;-62
2024/03/26 12:26:22;;;;;;;2.73;0.97;;;14.90;36.90;;;;;;5091667;28;20455;-62
2024/03/26 12:28:49;;;;;;;1.63;0.93;;;14.80;38.00;;;;;;5091269;28;20898;-62
2024/03/26 12:31:16;;;;;;;5.73;1.83;;;14.80;37.00;;;;;;5091596;28;20431;-63
2024/03/26 12:33:46;;;;;;;1.27;1.00;;;14.90;37.00;;;;;;5091474;28;20458;-63
2024/03/26 12:36:13;;;;;;;1.20;1.10;;;15.00;37.60;;;;;;5091523;28;20406;-63
2024/03/26 12:38:39;;;;;;;1.67;1.30;;;15.10;37.20;;;;;;5091403;28;20463;-63
2024/03/26 12:41:05;;;;;;;7.30;1.80;;;15.20;38.40;;;;;;5095110;28;20809;-64
2024/03/26 12:43:33;;;;;;;1.07;1.03;;;15.20;38.20;;;;;;5095376;28;20417;-63
2024/03/26 12:45:59;;;;;;;2.10;1.10;;;15.20;38.50;;;;;;5095287;28;20410;-63
2024/03/26 12:48:25;;;;;;;2.87;2.67;;;15.10;39.80;;;;;;5095258;28;20805;-63